createdAt,value
2018-01-27T00:00:25.578Z,76.47
2018-01-27T00:01:28.159Z,75.28
2018-01-27T00:02:30.656Z,71.95
2018-01-27T00:03:33.327Z,68.07
2018-01-27T00:04:36.561Z,81.28
2018-01-27T00:05:39.128Z,72.68
2018-01-27T00:06:41.625Z,75.35
2018-01-27T00:07:44.916Z,80.85
2018-01-27T00:08:47.443Z,76.25
2018-01-27T00:09:49.928Z,78.97
2018-01-27T00:10:53.169Z,78.55
2018-01-27T00:11:56.401Z,78.95
2018-01-27T00:12:59.634Z,70.68
2018-01-27T00:14:03.624Z,76.25
2018-01-27T00:15:06.109Z,70.68
2018-01-27T00:16:08.598Z,81.20
2018-01-27T00:17:11.117Z,82.88
2018-01-27T00:18:13.609Z,76.05
2018-01-27T00:19:16.846Z,77.78
2018-01-27T00:20:20.100Z,83.70
2018-01-27T00:21:23.355Z,79.85
2018-01-27T00:22:25.900Z,75.75
2018-01-27T00:23:28.375Z,87.78
2018-01-27T00:24:31.659Z,79.72
2018-01-27T00:25:34.166Z,81.03
2018-01-27T00:26:36.707Z,73.65
2018-01-27T00:27:39.210Z,77.57
2018-01-27T00:28:42.473Z,78.90
2018-01-27T00:29:44.997Z,80.35
2018-01-27T00:30:47.513Z,80.95
2018-01-27T00:31:50.106Z,79.95
2018-01-27T00:32:52.586Z,77.37
2018-01-27T00:33:55.096Z,84.60
2018-01-27T00:34:57.635Z,75.60
2018-01-27T00:36:00.110Z,78.07
2018-01-27T00:37:02.649Z,79.80
2018-01-27T00:38:05.893Z,87.60
2018-01-27T00:39:09.143Z,84.03
2018-01-27T00:40:12.380Z,78.75
2018-01-27T00:41:15.613Z,81.72
2018-01-27T00:42:18.889Z,76.68
2018-01-27T00:43:21.416Z,76.57
2018-01-27T00:44:23.883Z,81.57
2018-01-27T00:45:26.365Z,77.75
2018-01-27T00:46:28.857Z,81.07
2018-01-27T00:47:31.331Z,77.72
2018-01-27T00:48:33.791Z,78.45
2018-01-27T00:49:36.292Z,74.93
2018-01-27T00:50:38.751Z,80.45
2018-01-27T00:51:41.226Z,73.95
2018-01-27T00:52:43.690Z,79.60
2018-01-27T00:53:46.156Z,80.35
2018-01-27T00:54:48.641Z,76.22
2018-01-27T00:55:51.130Z,86.45
2018-01-27T00:56:53.652Z,80.30
2018-01-27T00:57:56.105Z,73.12
2018-01-27T00:58:58.583Z,79.72
2018-01-27T01:00:01.072Z,73.97
2018-01-27T01:01:04.327Z,77.32
2018-01-27T01:02:07.557Z,86.12
2018-01-27T01:03:10.124Z,79.10
2018-01-27T01:04:12.610Z,79.75
2018-01-27T01:05:15.082Z,75.15
2018-01-27T01:06:17.573Z,86.10
2018-01-27T01:07:20.806Z,74.90
2018-01-27T01:08:24.206Z,78.72
2018-01-27T01:09:26.706Z,82.65
2018-01-27T01:10:29.281Z,77.78
2018-01-27T01:11:31.736Z,77.40
2018-01-27T01:12:34.986Z,73.87
2018-01-27T01:13:38.310Z,80.50
2018-01-27T01:14:40.773Z,77.12
2018-01-27T01:15:43.254Z,77.95
2018-01-27T01:16:45.746Z,77.87
2018-01-27T01:17:48.241Z,75.62
2018-01-27T01:18:50.769Z,81.40
2018-01-27T01:19:53.254Z,79.03
2018-01-27T01:20:55.728Z,83.82
2018-01-27T01:21:58.202Z,76.25
2018-01-27T01:23:01.078Z,80.80
2018-01-27T01:24:03.529Z,86.90
2018-01-27T01:25:06.124Z,87.30
2018-01-27T01:26:08.606Z,89.05
2018-01-27T01:27:11.165Z,95.80
2018-01-27T01:28:14.804Z,77.62
2018-01-27T01:29:17.278Z,87.68
2018-01-27T01:30:19.750Z,83.97
2018-01-27T01:31:22.223Z,87.78
2018-01-27T01:32:24.681Z,83.15
2018-01-27T01:33:27.263Z,83.68
2018-01-27T01:34:29.789Z,88.68
2018-01-27T01:35:32.273Z,83.75
2018-01-27T01:36:34.746Z,92.30
2018-01-27T01:37:37.208Z,99.30
2018-01-27T01:38:39.685Z,84.78
2018-01-27T01:39:42.166Z,100.80
2018-01-27T01:40:44.636Z,86.50
2018-01-27T01:41:47.112Z,100.85
2018-01-27T01:42:55.210Z,92.07
2018-01-27T01:44:03.279Z,90.18
2018-01-27T01:45:05.753Z,85.70
2018-01-27T01:46:08.240Z,81.28
2018-01-27T01:47:10.689Z,84.62
2018-01-27T01:48:13.259Z,87.32
2018-01-27T01:49:23.474Z,91.55
2018-01-27T01:50:25.977Z,81.20
2018-01-27T01:51:28.494Z,106.35
2018-01-27T01:52:31.725Z,86.22
2018-01-27T01:53:34.194Z,99.80
2018-01-27T01:54:36.676Z,87.40
2018-01-27T01:55:40.632Z,88.37
2018-01-27T01:56:43.245Z,85.68
2018-01-27T01:57:45.834Z,98.07
2018-01-27T01:58:48.334Z,93.30
2018-01-27T01:59:51.570Z,81.43
2018-01-27T02:00:54.804Z,85.40
2018-01-27T02:01:58.060Z,88.95
2018-01-27T02:03:01.291Z,80.53
2018-01-27T02:04:04.548Z,84.40
2018-01-27T02:05:07.802Z,83.32
2018-01-27T02:06:10.289Z,85.70
2018-01-27T02:07:12.822Z,95.95
2018-01-27T02:08:15.285Z,87.03
2018-01-27T02:09:17.741Z,94.28
2018-01-27T02:10:20.218Z,97.70
2018-01-27T02:11:23.454Z,80.65
2018-01-27T02:12:26.712Z,82.53
2018-01-27T02:13:29.183Z,81.60
2018-01-27T02:14:31.628Z,96.55
2018-01-27T02:15:34.849Z,88.35
2018-01-27T02:16:37.502Z,76.35
2018-01-27T02:17:40.058Z,76.62
2018-01-27T02:18:42.528Z,77.60
2018-01-27T02:19:44.991Z,83.70
2018-01-27T02:20:48.217Z,84.80
2018-01-27T02:21:50.696Z,96.43
2018-01-27T02:22:53.174Z,91.50
2018-01-27T02:23:56.439Z,85.20
2018-01-27T02:24:58.962Z,84.62
2018-01-27T02:26:01.515Z,77.45
2018-01-27T02:27:03.986Z,81.65
2018-01-27T02:28:06.468Z,88.97
2018-01-27T02:29:08.933Z,94.28
2018-01-27T02:30:11.423Z,92.10
2018-01-27T02:31:14.647Z,94.87
2018-01-27T02:32:18.295Z,83.87
2018-01-27T02:33:20.820Z,82.82
2018-01-27T02:34:23.379Z,98.72
2018-01-27T02:35:25.919Z,88.68
2018-01-27T02:36:28.517Z,82.55
2018-01-27T02:37:30.977Z,76.28
2018-01-27T02:38:33.443Z,76.85
2018-01-27T02:39:35.912Z,81.75
2018-01-27T02:40:38.505Z,88.43
2018-01-27T02:41:40.981Z,79.35
2018-01-27T02:42:43.454Z,87.57
2018-01-27T02:43:45.970Z,74.65
2018-01-27T02:44:48.433Z,78.65
2018-01-27T02:45:50.928Z,76.62
2018-01-27T02:46:53.488Z,75.93
2018-01-27T02:47:55.933Z,80.68
2018-01-27T02:48:58.423Z,95.15
2018-01-27T02:50:00.900Z,76.10
2018-01-27T02:51:04.147Z,78.12
2018-01-27T02:52:07.408Z,86.63
2018-01-27T02:53:09.900Z,84.57
2018-01-27T02:54:13.177Z,75.85
2018-01-27T02:55:15.694Z,79.82
2018-01-27T02:56:18.169Z,81.80
2018-01-27T02:57:20.643Z,90.65
2018-01-27T02:58:23.182Z,90.00
2018-01-27T02:59:25.665Z,83.87
2018-01-27T03:00:28.215Z,81.80
2018-01-27T03:01:31.456Z,79.25
2018-01-27T03:02:34.720Z,84.30
2018-01-27T03:03:37.209Z,84.40
2018-01-27T03:04:40.452Z,79.85
2018-01-27T03:05:43.011Z,86.57
2018-01-27T03:06:45.474Z,84.25
2018-01-27T03:07:47.974Z,80.70
2018-01-27T03:08:50.457Z,83.20
2018-01-27T03:09:53.702Z,88.15
2018-01-27T03:10:56.975Z,81.68
2018-01-27T03:11:59.531Z,85.35
2018-01-27T03:13:01.990Z,87.22
2018-01-27T03:14:05.262Z,95.93
2018-01-27T03:15:07.813Z,83.25
2018-01-27T03:16:10.262Z,81.10
2018-01-27T03:17:12.816Z,86.97
2018-01-27T03:18:16.080Z,79.03
2018-01-27T03:19:18.544Z,95.15
2018-01-27T03:20:21.040Z,84.53
2018-01-27T03:21:23.505Z,88.87
2018-01-27T03:22:25.983Z,86.60
2018-01-27T03:23:28.506Z,94.95
2018-01-27T03:24:30.962Z,84.47
2018-01-27T03:25:33.549Z,82.50
2018-01-27T03:26:36.023Z,87.72
2018-01-27T03:27:38.480Z,88.30
2018-01-27T03:28:41.754Z,77.95
2018-01-27T03:29:44.272Z,80.65
2018-01-27T03:30:46.757Z,90.35
2018-01-27T03:31:49.226Z,83.82
2018-01-27T03:32:51.724Z,83.82
2018-01-27T03:33:54.986Z,82.43
2018-01-27T03:34:57.445Z,76.60
2018-01-27T03:35:59.936Z,83.87
2018-01-27T03:37:02.395Z,87.25
2018-01-27T03:38:04.897Z,71.72
2018-01-27T03:39:07.418Z,86.28
2018-01-27T03:40:09.904Z,83.35
2018-01-27T03:41:12.483Z,82.25
2018-01-27T03:42:14.970Z,77.87
2018-01-27T03:43:17.469Z,84.62
2018-01-27T03:44:19.921Z,81.15
2018-01-27T03:45:23.160Z,91.75
2018-01-27T03:46:26.391Z,91.97
2018-01-27T03:47:28.864Z,80.97
2018-01-27T03:48:31.366Z,84.72
2018-01-27T03:49:34.596Z,82.93
2018-01-27T03:50:37.850Z,86.87
2018-01-27T03:51:41.078Z,81.63
2018-01-27T03:52:43.540Z,82.78
2018-01-27T03:53:46.002Z,81.20
2018-01-27T03:54:48.527Z,81.00
2018-01-27T03:55:51.016Z,87.32
2018-01-27T03:56:53.541Z,74.87
2018-01-27T03:57:56.154Z,79.65
2018-01-27T03:58:59.322Z,85.00
2018-01-27T04:00:01.813Z,81.65
2018-01-27T04:01:04.298Z,77.45
2018-01-27T04:02:06.801Z,87.12
2018-01-27T04:03:09.257Z,88.37
2018-01-27T04:04:11.710Z,82.80
2018-01-27T04:05:15.065Z,82.97
2018-01-27T04:06:17.522Z,77.75
2018-01-27T04:07:20.022Z,82.30
2018-01-27T04:08:22.583Z,94.47
2018-01-27T04:09:25.061Z,85.32
2018-01-27T04:10:28.300Z,87.45
2018-01-27T04:11:30.794Z,81.63
2018-01-27T04:12:33.258Z,92.97
2018-01-27T04:13:35.750Z,79.90
2018-01-27T04:14:38.228Z,87.85
2018-01-27T04:15:40.701Z,78.80
2018-01-27T04:16:43.167Z,84.18
2018-01-27T04:17:45.643Z,82.15
2018-01-27T04:18:48.122Z,78.68
2018-01-27T04:19:51.139Z,87.43
2018-01-27T04:20:53.590Z,88.72
2018-01-27T04:21:56.054Z,83.62
2018-01-27T04:22:58.548Z,82.12
2018-01-27T04:24:01.022Z,86.97
2018-01-27T04:25:04.332Z,92.12
2018-01-27T04:26:06.824Z,87.05
2018-01-27T04:27:09.290Z,80.78
2018-01-27T04:28:11.779Z,87.60
2018-01-27T04:29:14.270Z,93.05
2018-01-27T04:30:17.504Z,99.10
2018-01-27T04:31:20.738Z,90.93
2018-01-27T04:32:24.701Z,93.68
2018-01-27T04:33:27.965Z,79.25
2018-01-27T04:34:31.205Z,83.47
2018-01-27T04:35:34.432Z,85.90
2018-01-27T04:36:36.894Z,82.40
2018-01-27T04:37:39.381Z,82.22
2018-01-27T04:38:42.616Z,94.28
2018-01-27T04:39:45.174Z,93.37
2018-01-27T04:40:47.670Z,88.60
2018-01-27T04:41:50.944Z,81.68
2018-01-27T04:42:53.481Z,91.03
2018-01-27T04:43:55.954Z,88.22
2018-01-27T04:44:58.428Z,83.40
2018-01-27T04:46:00.925Z,88.85
2018-01-27T04:47:04.167Z,86.75
2018-01-27T04:48:07.434Z,78.43
2018-01-27T04:49:09.935Z,78.37
2018-01-27T04:50:12.384Z,96.55
2018-01-27T04:51:14.876Z,89.95
2018-01-27T04:52:17.394Z,83.32
2018-01-27T04:53:19.971Z,96.57
2018-01-27T04:54:22.439Z,89.90
2018-01-27T04:55:24.946Z,84.00
2018-01-27T04:56:27.393Z,88.25
2018-01-27T04:57:29.919Z,90.90
2018-01-27T04:58:32.399Z,87.15
2018-01-27T04:59:34.862Z,83.43
2018-01-27T05:00:37.346Z,79.12
2018-01-27T05:01:39.832Z,79.90
2018-01-27T05:02:42.323Z,86.15
2018-01-27T05:03:44.798Z,82.40
2018-01-27T05:04:48.045Z,85.50
2018-01-27T05:05:50.581Z,82.37
2018-01-27T05:06:53.103Z,82.50
2018-01-27T05:07:55.845Z,75.07
2018-01-27T05:08:58.310Z,80.22
2018-01-27T05:10:00.872Z,80.72
2018-01-27T05:11:04.135Z,97.55
2018-01-27T05:12:06.629Z,81.37
2018-01-27T05:13:09.858Z,85.65
2018-01-27T05:14:12.326Z,81.78
2018-01-27T05:15:14.822Z,87.00
2018-01-27T05:16:18.083Z,84.87
2018-01-27T05:17:20.533Z,87.60
2018-01-27T05:18:23.004Z,76.22
2018-01-27T05:19:26.264Z,79.60
2018-01-27T05:20:29.525Z,80.70
2018-01-27T05:21:32.002Z,85.03
2018-01-27T05:22:34.470Z,89.90
2018-01-27T05:23:36.945Z,87.20
2018-01-27T05:24:39.400Z,103.68
2018-01-27T05:25:42.658Z,85.57
2018-01-27T05:26:45.183Z,96.97
2018-01-27T05:27:47.671Z,89.57
2018-01-27T05:28:50.157Z,92.50
2018-01-27T05:29:52.658Z,90.47
2018-01-27T05:30:55.185Z,85.10
2018-01-27T05:31:57.642Z,85.75
2018-01-27T05:33:00.141Z,95.25
2018-01-27T05:34:02.664Z,96.80
2018-01-27T05:35:05.130Z,92.35
2018-01-27T05:36:07.606Z,99.28
2018-01-27T05:37:10.090Z,95.05
2018-01-27T05:38:12.554Z,86.28
2018-01-27T05:39:15.005Z,80.78
2018-01-27T05:40:17.464Z,93.20
2018-01-27T05:41:20.706Z,92.78
2018-01-27T05:42:23.207Z,94.80
2018-01-27T05:43:25.671Z,85.85
2018-01-27T05:44:28.893Z,89.90
2018-01-27T05:45:31.360Z,90.07
2018-01-27T05:46:34.572Z,92.10
2018-01-27T05:47:37.154Z,90.75
2018-01-27T05:48:39.944Z,100.00
2018-01-27T05:49:42.403Z,92.35
2018-01-27T05:50:44.917Z,99.70
2018-01-27T05:51:47.391Z,94.18
2018-01-27T05:52:49.875Z,90.75
2018-01-27T05:53:52.347Z,102.40
2018-01-27T05:54:54.930Z,99.95
2018-01-27T05:55:57.416Z,101.97
2018-01-27T05:56:59.878Z,93.15
2018-01-27T05:58:02.346Z,98.00
2018-01-27T05:59:04.815Z,97.55
2018-01-27T06:00:08.069Z,85.15
2018-01-27T06:01:10.536Z,92.72
2018-01-27T06:02:12.995Z,101.47
2018-01-27T06:03:16.228Z,102.03
2018-01-27T06:04:19.462Z,101.28
2018-01-27T06:05:22.719Z,100.15
2018-01-27T06:06:25.953Z,93.30
2018-01-27T06:07:28.505Z,80.90
2018-01-27T06:08:30.958Z,92.15
2018-01-27T06:09:33.439Z,90.95
2018-01-27T06:10:36.688Z,96.43
2018-01-27T06:11:39.941Z,89.55
2018-01-27T06:12:42.453Z,93.68
2018-01-27T06:13:45.694Z,98.95
2018-01-27T06:14:48.940Z,99.28
2018-01-27T06:15:52.176Z,103.78
2018-01-27T06:16:55.392Z,95.90
2018-01-27T06:17:57.889Z,99.37
2018-01-27T06:19:00.337Z,100.80
2018-01-27T06:20:02.801Z,106.90
2018-01-27T06:21:06.063Z,101.05
2018-01-27T06:22:08.536Z,98.62
2018-01-27T06:23:12.524Z,91.87
2018-01-27T06:24:15.756Z,101.85
2018-01-27T06:25:19.006Z,99.30
2018-01-27T06:26:22.237Z,108.53
2018-01-27T06:27:25.472Z,98.35
2018-01-27T06:28:28.045Z,97.05
2018-01-27T06:29:30.533Z,92.18
2018-01-27T06:30:33.778Z,93.22
2018-01-27T06:31:37.014Z,95.75
2018-01-27T06:32:39.477Z,107.40
2018-01-27T06:33:42.002Z,94.80
2018-01-27T06:34:44.495Z,101.12
2018-01-27T06:35:47.775Z,95.25
2018-01-27T06:36:50.257Z,105.50
2018-01-27T06:37:53.486Z,98.82
2018-01-27T06:38:55.957Z,101.47
2018-01-27T06:39:58.458Z,100.93
2018-01-27T06:41:01.701Z,100.10
2018-01-27T06:42:04.940Z,95.97
2018-01-27T06:43:08.169Z,99.03
2018-01-27T06:44:10.625Z,102.53
2018-01-27T06:45:13.158Z,98.85
2018-01-27T06:46:15.654Z,99.35
2018-01-27T06:47:18.876Z,97.88
2018-01-27T06:48:21.447Z,99.50
2018-01-27T06:49:23.917Z,101.95
2018-01-27T06:50:26.447Z,94.22
2018-01-27T06:51:28.960Z,97.95
2018-01-27T06:52:31.422Z,84.10
2018-01-27T06:53:34.691Z,94.82
2018-01-27T06:54:37.164Z,89.55
2018-01-27T06:55:39.650Z,91.00
2018-01-27T06:56:42.127Z,90.40
2018-01-27T06:57:44.603Z,85.60
2018-01-27T06:58:47.074Z,90.97
2018-01-27T06:59:49.556Z,88.87
2018-01-27T07:00:52.788Z,90.70
2018-01-27T07:01:55.276Z,93.40
2018-01-27T07:02:57.739Z,81.82
2018-01-27T07:04:00.204Z,83.90
2018-01-27T07:05:02.673Z,83.35
2018-01-27T07:06:05.925Z,84.57
2018-01-27T07:07:08.395Z,85.40
2018-01-27T07:08:10.858Z,85.43
2018-01-27T07:09:14.102Z,90.53
2018-01-27T07:10:17.351Z,91.78
2018-01-27T07:11:19.840Z,84.68
2018-01-27T07:12:22.321Z,86.95
2018-01-27T07:13:24.862Z,89.32
2018-01-27T07:14:27.330Z,82.22
2018-01-27T07:15:29.830Z,87.37
2018-01-27T07:16:32.311Z,86.82
2018-01-27T07:17:34.779Z,86.05
2018-01-27T07:18:37.258Z,88.07
2018-01-27T07:19:40.515Z,78.40
2018-01-27T07:20:42.984Z,95.38
2018-01-27T07:21:45.454Z,91.20
2018-01-27T07:22:47.938Z,92.37
2018-01-27T07:23:50.402Z,95.03
2018-01-27T07:24:52.885Z,94.85
2018-01-27T07:25:55.342Z,87.90
2018-01-27T07:26:57.872Z,94.68
2018-01-27T07:28:00.385Z,89.90
2018-01-27T07:29:03.636Z,83.82
2018-01-27T07:30:06.130Z,91.95
2018-01-27T07:31:08.595Z,87.35
2018-01-27T07:32:11.064Z,82.85
2018-01-27T07:33:13.559Z,84.85
2018-01-27T07:34:16.028Z,85.55
2018-01-27T07:35:18.588Z,84.62
2018-01-27T07:36:21.078Z,88.05
2018-01-27T07:37:23.574Z,89.70
2018-01-27T07:38:26.077Z,90.38
2018-01-27T07:39:28.917Z,95.87
2018-01-27T07:40:31.435Z,85.93
2018-01-27T07:41:33.909Z,96.87
2018-01-27T07:42:36.375Z,91.20
2018-01-27T07:43:38.846Z,73.28
2018-01-27T07:44:41.307Z,83.60
2018-01-27T07:45:44.687Z,84.32
2018-01-27T07:46:47.146Z,91.45
2018-01-27T07:47:49.614Z,82.10
2018-01-27T07:48:52.163Z,84.85
2018-01-27T07:49:55.092Z,87.85
2018-01-27T07:50:57.578Z,74.97
2018-01-27T07:52:00.847Z,76.50
2018-01-27T07:53:03.383Z,88.43
2018-01-27T07:54:05.862Z,79.80
2018-01-27T07:55:08.324Z,79.60
2018-01-27T07:56:10.803Z,82.68
2018-01-27T07:57:13.370Z,84.68
2018-01-27T07:58:15.849Z,80.10
2018-01-27T07:59:18.319Z,80.85
2018-01-27T08:00:20.780Z,77.05
2018-01-27T08:01:23.248Z,82.70
2018-01-27T08:02:26.561Z,80.95
2018-01-27T08:03:29.050Z,82.93
2018-01-27T08:04:31.571Z,89.80
2018-01-27T08:05:34.052Z,84.80
2018-01-27T08:06:36.634Z,80.30
2018-01-27T08:07:39.147Z,78.35
2018-01-27T08:08:41.604Z,91.78
2018-01-27T08:09:44.200Z,90.50
2018-01-27T08:10:46.660Z,98.37
2018-01-27T08:11:49.128Z,93.28
2018-01-27T08:12:52.365Z,82.35
2018-01-27T08:13:55.576Z,79.03
2018-01-27T08:14:58.153Z,90.70
2018-01-27T08:16:00.610Z,82.97
2018-01-27T08:17:03.101Z,84.57
2018-01-27T08:18:06.345Z,80.47
2018-01-27T08:19:09.714Z,84.45
2018-01-27T08:20:12.178Z,87.25
2018-01-27T08:21:14.637Z,75.07
2018-01-27T08:22:17.138Z,76.93
2018-01-27T08:23:19.585Z,77.10
2018-01-27T08:24:22.843Z,78.00
2018-01-27T08:25:25.370Z,77.93
2018-01-27T08:26:27.811Z,76.25
2018-01-27T08:27:30.304Z,88.07
2018-01-27T08:28:33.542Z,82.47
2018-01-27T08:29:37.050Z,81.93
2018-01-27T08:30:39.521Z,77.68
2018-01-27T08:31:42.766Z,72.07
2018-01-27T08:32:45.276Z,74.20
2018-01-27T08:33:48.524Z,64.60
2018-01-27T08:34:51.761Z,82.03
2018-01-27T08:35:54.978Z,72.70
2018-01-27T08:36:57.442Z,71.45
2018-01-27T08:37:59.928Z,67.07
2018-01-27T08:39:02.399Z,61.83
2018-01-27T08:40:04.967Z,64.78
2018-01-27T08:41:07.426Z,61.78
2018-01-27T08:42:10.693Z,63.85
2018-01-27T08:43:13.197Z,55.90
2018-01-27T08:44:16.452Z,54.97
2018-01-27T08:45:18.900Z,49.33
2018-01-27T08:46:21.408Z,56.78
2018-01-27T08:47:24.647Z,51.67
2018-01-27T08:48:27.155Z,58.38
2018-01-27T08:49:31.149Z,47.75
2018-01-27T08:50:33.610Z,52.83
2018-01-27T08:51:36.866Z,49.78
2018-01-27T08:52:39.341Z,49.85
2018-01-27T08:53:41.815Z,52.95
2018-01-27T08:54:45.092Z,46.75
2018-01-27T08:55:48.323Z,43.63
2018-01-27T08:56:50.875Z,44.35
2018-01-27T08:57:53.357Z,46.13
2018-01-27T08:58:55.838Z,56.08
2018-01-27T08:59:58.346Z,44.30
2018-01-27T09:01:00.802Z,38.88
2018-01-27T09:02:03.316Z,45.42
2018-01-27T09:03:05.783Z,43.35
2018-01-27T09:04:08.267Z,45.72
2018-01-27T09:05:10.738Z,42.33
2018-01-27T09:06:13.968Z,46.65
2018-01-27T09:07:16.438Z,42.30
2018-01-27T09:08:18.908Z,39.55
2018-01-27T09:09:21.982Z,35.15
2018-01-27T09:10:25.235Z,41.72
2018-01-27T09:11:27.702Z,35.67
2018-01-27T09:12:30.160Z,35.17
2018-01-27T09:13:32.635Z,40.42
2018-01-27T09:14:35.111Z,47.45
2018-01-27T09:15:38.378Z,38.35
2018-01-27T09:16:40.973Z,37.90
2018-01-27T09:17:43.441Z,39.80
2018-01-27T09:18:45.952Z,37.67
2018-01-27T09:19:48.417Z,36.33
2018-01-27T09:20:50.902Z,40.47
2018-01-27T09:21:53.377Z,37.30
2018-01-27T09:22:55.954Z,33.50
2018-01-27T09:23:58.590Z,37.03
2018-01-27T09:25:01.119Z,34.70
2018-01-27T09:26:03.583Z,39.67
2018-01-27T09:27:06.101Z,38.55
2018-01-27T09:28:08.628Z,33.65
2018-01-27T09:29:11.097Z,34.75
2018-01-27T09:30:14.358Z,34.65
2018-01-27T09:31:16.852Z,37.45
2018-01-27T09:32:19.329Z,36.97
2018-01-27T09:33:21.789Z,38.22
2018-01-27T09:34:24.875Z,36.17
2018-01-27T09:35:27.359Z,35.95
2018-01-27T09:36:29.824Z,28.77
2018-01-27T09:37:32.323Z,33.35
2018-01-27T09:38:35.606Z,25.25
2018-01-27T09:39:38.085Z,33.03
2018-01-27T09:40:41.319Z,34.58
2018-01-27T09:41:43.784Z,31.77
2018-01-27T09:42:46.772Z,36.53
2018-01-27T09:43:50.017Z,33.67
2018-01-27T09:44:52.506Z,32.42
2018-01-27T09:45:54.964Z,35.70
2018-01-27T09:46:57.445Z,38.90
2018-01-27T09:48:00.050Z,31.45
2018-01-27T09:49:02.533Z,27.85
2018-01-27T09:50:05.143Z,32.70
2018-01-27T09:51:07.597Z,38.80
2018-01-27T09:52:11.097Z,34.08
2018-01-27T09:53:13.722Z,30.50
2018-01-27T09:54:16.188Z,30.23
2018-01-27T09:55:18.654Z,29.83
2018-01-27T09:56:21.197Z,35.13
2018-01-27T09:57:23.717Z,28.60
2018-01-27T09:58:26.293Z,33.42
2018-01-27T09:59:29.535Z,36.28
2018-01-27T10:00:32.089Z,28.58
2018-01-27T10:01:35.310Z,31.85
2018-01-27T10:02:37.820Z,26.00
2018-01-27T10:03:40.299Z,32.33
2018-01-27T10:04:42.826Z,36.13
2018-01-27T10:05:46.036Z,28.95
2018-01-27T10:06:48.473Z,34.47
2018-01-27T10:07:51.778Z,36.67
2018-01-27T10:08:54.242Z,32.58
2018-01-27T10:09:57.506Z,33.72
2018-01-27T10:10:59.987Z,36.67
2018-01-27T10:12:02.536Z,30.95
2018-01-27T10:13:05.788Z,36.80
2018-01-27T10:14:09.029Z,44.28
2018-01-27T10:15:11.522Z,45.75
2018-01-27T10:16:15.493Z,52.65
2018-01-27T10:17:18.709Z,40.08
2018-01-27T10:18:21.190Z,36.65
2018-01-27T10:19:23.715Z,57.50
2018-01-27T10:20:26.193Z,37.70
2018-01-27T10:21:28.662Z,38.17
2018-01-27T10:22:31.174Z,35.20
2018-01-27T10:23:34.447Z,33.50
2018-01-27T10:24:36.967Z,31.60
2018-01-27T10:25:40.326Z,43.47
2018-01-27T10:26:42.873Z,36.45
2018-01-27T10:27:45.364Z,33.83
2018-01-27T10:28:48.027Z,40.05
2018-01-27T10:29:50.533Z,36.00
2018-01-27T10:30:53.039Z,34.17
2018-01-27T10:31:55.515Z,30.58
2018-01-27T10:32:58.130Z,30.52
2018-01-27T10:34:00.617Z,31.20
2018-01-27T10:35:03.091Z,31.73
2018-01-27T10:36:05.781Z,32.88
2018-01-27T10:37:08.286Z,40.53
2018-01-27T10:38:10.825Z,35.63
2018-01-27T10:39:13.373Z,40.90
2018-01-27T10:40:15.856Z,34.80
2018-01-27T10:41:19.123Z,36.83
2018-01-27T10:42:21.598Z,34.35
2018-01-27T10:43:24.078Z,36.28
2018-01-27T10:44:26.575Z,35.22
2018-01-27T10:45:29.818Z,34.95
2018-01-27T10:46:33.078Z,31.95
2018-01-27T10:47:36.067Z,34.33
2018-01-27T10:48:38.571Z,30.70
2018-01-27T10:49:41.028Z,31.92
2018-01-27T10:50:44.261Z,26.83
2018-01-27T10:51:46.734Z,43.95
2018-01-27T10:52:49.219Z,30.48
2018-01-27T10:53:51.747Z,34.63
2018-01-27T10:54:55.006Z,32.78
2018-01-27T10:55:58.238Z,27.58
2018-01-27T10:57:01.470Z,31.70
2018-01-27T10:58:03.933Z,19.23
2018-01-27T10:59:06.448Z,27.48
2018-01-27T11:00:08.971Z,28.17
2018-01-27T11:01:11.498Z,23.42
2018-01-27T11:02:14.729Z,23.45
2018-01-27T11:03:17.985Z,26.92
2018-01-27T11:04:20.718Z,28.27
2018-01-27T11:05:23.239Z,23.38
2018-01-27T11:06:25.769Z,24.58
2018-01-27T11:07:28.224Z,25.23
2018-01-27T11:08:30.696Z,27.65
2018-01-27T11:09:33.937Z,32.70
2018-01-27T11:10:36.411Z,28.75
2018-01-27T11:11:38.969Z,29.50
2018-01-27T11:12:41.418Z,28.38
2018-01-27T11:13:44.675Z,28.85
2018-01-27T11:14:47.925Z,25.75
2018-01-27T11:15:50.403Z,29.35
2018-01-27T11:16:52.879Z,22.80
2018-01-27T11:17:55.377Z,34.13
2018-01-27T11:18:58.616Z,26.42
2018-01-27T11:20:01.848Z,40.10
2018-01-27T11:21:05.825Z,28.23
2018-01-27T11:22:09.062Z,25.17
2018-01-27T11:23:12.371Z,28.42
2018-01-27T11:24:14.906Z,37.28
2018-01-27T11:25:17.365Z,26.35
2018-01-27T11:26:20.615Z,33.80
2018-01-27T11:27:23.842Z,31.00
2018-01-27T11:28:27.121Z,29.40
2018-01-27T11:29:29.591Z,26.75
2018-01-27T11:30:32.059Z,28.62
2018-01-27T11:31:34.586Z,26.15
2018-01-27T11:32:37.070Z,30.05
2018-01-27T11:33:39.549Z,31.83
2018-01-27T11:34:42.015Z,26.48
2018-01-27T11:35:44.562Z,30.27
2018-01-27T11:36:47.929Z,32.88
2018-01-27T11:37:50.509Z,42.78
2018-01-27T11:38:53.080Z,26.70
2018-01-27T11:39:55.554Z,37.03
2018-01-27T11:40:58.069Z,30.88
2018-01-27T11:42:00.568Z,28.35
2018-01-27T11:43:03.126Z,28.95
2018-01-27T11:44:05.609Z,32.15
2018-01-27T11:45:08.828Z,32.72
2018-01-27T11:46:12.066Z,28.35
2018-01-27T11:47:14.548Z,35.63
2018-01-27T11:48:17.054Z,26.65
2018-01-27T11:49:19.582Z,30.95
2018-01-27T11:50:22.072Z,29.20
2018-01-27T11:51:25.346Z,35.47
2018-01-27T11:52:27.805Z,29.50
2018-01-27T11:53:30.345Z,30.42
2018-01-27T11:54:32.858Z,29.50
2018-01-27T11:55:35.392Z,29.98
2018-01-27T11:56:37.840Z,34.92
2018-01-27T11:57:41.074Z,30.50
2018-01-27T11:58:43.535Z,29.92
2018-01-27T11:59:46.025Z,29.48
2018-01-27T12:00:48.498Z,26.87
2018-01-27T12:01:50.965Z,43.65
2018-01-27T12:02:54.240Z,32.67
2018-01-27T12:03:56.698Z,29.50
2018-01-27T12:04:59.199Z,31.60
2018-01-27T12:06:01.673Z,32.33
2018-01-27T12:07:04.244Z,27.17
2018-01-27T12:08:06.798Z,40.33
2018-01-27T12:09:09.321Z,30.25
2018-01-27T12:10:11.870Z,30.58
2018-01-27T12:11:14.329Z,26.67
2018-01-27T12:12:17.588Z,34.75
2018-01-27T12:13:20.819Z,26.87
2018-01-27T12:14:24.069Z,32.80
2018-01-27T12:15:27.326Z,31.70
2018-01-27T12:16:29.807Z,30.02
2018-01-27T12:17:32.304Z,29.77
2018-01-27T12:18:34.797Z,34.50
2018-01-27T12:19:37.286Z,32.78
2018-01-27T12:20:39.771Z,36.10
2018-01-27T12:21:42.247Z,38.65
2018-01-27T12:22:45.491Z,34.13
2018-01-27T12:23:47.998Z,34.33
2018-01-27T12:24:50.470Z,28.30
2018-01-27T12:25:52.986Z,38.53
2018-01-27T12:26:55.529Z,31.02
2018-01-27T12:27:58.039Z,27.45
2018-01-27T12:29:00.562Z,31.73
2018-01-27T12:30:03.115Z,32.38
2018-01-27T12:31:05.636Z,30.50
2018-01-27T12:32:08.944Z,29.25
2018-01-27T12:33:12.211Z,27.75
2018-01-27T12:34:14.723Z,32.60
2018-01-27T12:35:17.959Z,38.20
2018-01-27T12:36:21.226Z,32.10
2018-01-27T12:37:23.693Z,31.17
2018-01-27T12:38:26.196Z,29.63
2018-01-27T12:39:28.673Z,37.50
2018-01-27T12:40:31.909Z,32.22
2018-01-27T12:41:35.180Z,27.30
2018-01-27T12:42:37.659Z,34.70
2018-01-27T12:43:40.174Z,35.47
2018-01-27T12:44:42.646Z,31.25
2018-01-27T12:45:45.115Z,36.17
2018-01-27T12:46:47.579Z,29.10
2018-01-27T12:47:51.678Z,36.17
2018-01-27T12:48:54.155Z,33.58
2018-01-27T12:49:58.135Z,37.13
2018-01-27T12:51:01.387Z,35.67
2018-01-27T12:52:03.850Z,31.40
2018-01-27T12:53:06.456Z,30.95
2018-01-27T12:54:08.926Z,35.83
2018-01-27T12:55:12.922Z,30.88
2018-01-27T12:56:16.185Z,34.35
2018-01-27T12:57:18.650Z,34.60
2018-01-27T12:58:21.149Z,35.20
2018-01-27T12:59:23.621Z,35.05
2018-01-27T13:00:26.858Z,33.13
2018-01-27T13:01:29.331Z,35.85
2018-01-27T13:02:31.791Z,34.97
2018-01-27T13:03:34.312Z,31.45
2018-01-27T13:04:36.786Z,32.80
2018-01-27T13:05:39.255Z,29.85
2018-01-27T13:06:41.819Z,31.75
2018-01-27T13:07:45.032Z,30.10
2018-01-27T13:08:47.609Z,34.83
2018-01-27T13:09:50.130Z,27.20
2018-01-27T13:10:53.156Z,25.85
2018-01-27T13:11:56.387Z,33.70
2018-01-27T13:12:59.650Z,28.90
2018-01-27T13:14:02.121Z,30.85
2018-01-27T13:15:04.604Z,31.10
2018-01-27T13:16:07.150Z,31.00
2018-01-27T13:17:09.781Z,34.00
2018-01-27T13:18:12.382Z,34.28
2018-01-27T13:19:14.854Z,36.00
2018-01-27T13:20:17.313Z,29.52
2018-01-27T13:21:20.596Z,26.85
2018-01-27T13:22:23.057Z,34.05
2018-01-27T13:23:25.626Z,26.45
2018-01-27T13:24:28.157Z,25.10
2018-01-27T13:25:30.631Z,32.60
2018-01-27T13:26:33.113Z,24.45